Airfield :
LOGIN :

Register | Disclaimer

   EN    FR    IT 

 










Legend :    VFR   Marginal VFR   IFR   Intensive IFR   Very Intensive IFR
Visi :
Ceiling :
>= 8 km
>= 3000ft
5 to 8 km
1000 to 3000 ft
1500m to 5 km
500 to 1000 ft
800 to 1500m
200 to 500 ft
< 800m
< 200 ft
Symbols :   Thunderstorms  Fog  Heavy snow  Heavy precipitations  Wind > 20 kt
SIGMETs :     Misc.  Thunderstorms  Icing  Turbulence  Mountain Waves  Volcanic Ashes







- Airport Elevation : 112 ft
- IATA code : KIR


EIKY - Kerry Farranfore

CURRENT METAR :
  • 121530Z 29010G22KT 230V320 9999 -RA SCT012 BKN031 09/07 Q1002

EXPIRED METARs :
  • 121500Z 29006KT 220V340 9999 SCT014 BKN040 09/07 Q1002
  • 121430Z 26006KT 200V320 9999 -RA BKN022 08/06 Q1001
  • 121400Z 19013KT 9999 BKN033 BKN042 08/06 Q1000
  • 121330Z 20012KT 9999 BKN036 BKN043 08/06 Q1001
  • 121300Z 20014KT 9999 -RA FEW018 SCT036 BKN042 08/06 Q1001

TAF TAF EIKY
Valid from the 12 at 15:00 until the 12 at 21:00 UTC


121400Z 1215/1221 29015G26KT 9999 SCT018 BKN025
BECMG 1217/1219 30013KT
BECMG 1219/1221 27010KT
No reported NOTAMs for that airfield.
1 SIGMET reported for the Shannon FIR (EISN) :
 
Severe turbulence
EISN SIGMET 03 VALID 121430/121830 EINN
EISN SHANNON FIR/UIR SEV TURB FCST WI N5100 W00800 - N5420 W01200 - N5434 W01000 - N5445 W00900 - N5425 W00810 - N5215 W00540 - N5100 W00800 FL220/410 MOV ENE AT 18KT NC=



MET'MAP, your aeronautical weather chart ! - Copyright ORBIFLY December 2007 - Disclaimer

ORBIFLY MET'MAP TEAM :

Programming & Development : Alexandra Zaïnal
Concept & Development : Baudouin d'Aumeries
Co-Development & Prog : Marc-Olivier Méhu
Technical & hardware support : Manuel Goepfert

Contact : metmap@orbifly.com




SOURCES & CREDITS :

   NOAA